createdAt,value
2023-02-24T00:02:05.125Z,136.70
2023-02-24T00:04:40.698Z,131.68
2023-02-24T00:07:12.939Z,126.72
2023-02-24T00:09:40.948Z,130.07
2023-02-24T00:12:13.323Z,128.50
2023-02-24T00:14:44.364Z,122.43
2023-02-24T00:17:16.704Z,129.15
2023-02-24T00:19:46.675Z,139.50
2023-02-24T00:22:14.636Z,120.20
2023-02-24T00:24:42.504Z,129.55
2023-02-24T00:27:13.586Z,141.32
2023-02-24T00:29:42.350Z,124.15
2023-02-24T00:32:13.712Z,128.23
2023-02-24T00:34:43.416Z,128.20
2023-02-24T00:37:12.333Z,126.25
2023-02-24T00:39:41.982Z,124.47
2023-02-24T00:42:12.211Z,120.30
2023-02-24T00:44:44.494Z,122.05
2023-02-24T00:47:13.997Z,123.38
2023-02-24T00:49:43.274Z,117.65
2023-02-24T00:52:20.646Z,122.90
2023-02-24T00:54:50.238Z,119.45
2023-02-24T00:57:20.605Z,122.60
2023-02-24T00:59:48.737Z,115.10
2023-02-24T01:02:16.730Z,117.50
2023-02-24T01:04:46.579Z,117.32
2023-02-24T01:07:14.937Z,113.95
2023-02-24T01:09:44.479Z,112.30
2023-02-24T01:12:32.367Z,124.13
2023-02-24T01:15:03.275Z,118.95
2023-02-24T01:17:31.512Z,118.00
2023-02-24T01:20:15.995Z,123.35
2023-02-24T01:22:53.806Z,124.28
2023-02-24T01:25:21.853Z,122.65
2023-02-24T01:27:49.741Z,114.53
2023-02-24T01:30:18.655Z,118.60
2023-02-24T01:32:47.714Z,124.03
2023-02-24T01:35:16.038Z,119.30
2023-02-24T01:37:45.704Z,122.78
2023-02-24T01:40:21.166Z,119.68
2023-02-24T01:42:49.746Z,118.90
2023-02-24T01:45:22.034Z,121.53
2023-02-24T01:47:51.771Z,120.27
2023-02-24T01:50:21.977Z,123.88
2023-02-24T01:52:56.464Z,116.05
2023-02-24T01:55:32.646Z,122.68
2023-02-24T01:58:37.351Z,117.47
2023-02-24T02:01:09.576Z,126.35
2023-02-24T02:03:42.035Z,121.40
2023-02-24T02:06:14.255Z,117.45
2023-02-24T02:08:43.704Z,111.93
2023-02-24T02:11:23.189Z,119.75
2023-02-24T02:13:53.531Z,112.35
2023-02-24T02:16:39.419Z,115.95
2023-02-24T02:19:34.888Z,124.82
2023-02-24T02:22:27.175Z,116.55
2023-02-24T02:25:25.926Z,116.50
2023-02-24T02:28:15.237Z,119.88
2023-02-24T02:31:26.318Z,110.13
2023-02-24T02:34:17.191Z,114.10
2023-02-24T02:37:16.176Z,114.90
2023-02-24T02:39:47.048Z,109.35
2023-02-24T02:42:35.810Z,112.65
2023-02-24T02:45:21.040Z,113.78
2023-02-24T02:48:15.812Z,116.07
2023-02-24T02:50:58.204Z,110.72
2023-02-24T02:53:53.053Z,111.75
2023-02-24T02:56:37.773Z,112.18
2023-02-24T02:59:09.112Z,121.00
2023-02-24T03:01:44.198Z,123.28
2023-02-24T03:04:17.869Z,115.85
2023-02-24T03:06:59.649Z,114.85
2023-02-24T03:09:32.802Z,114.65
2023-02-24T03:12:09.371Z,118.88
2023-02-24T03:14:46.259Z,119.95
2023-02-24T03:17:22.383Z,113.70
2023-02-24T03:20:15.810Z,109.68
2023-02-24T03:22:55.051Z,117.15
2023-02-24T03:25:30.982Z,114.40
2023-02-24T03:28:07.104Z,109.53
2023-02-24T03:30:44.497Z,111.63
2023-02-24T03:33:45.582Z,108.68
2023-02-24T03:36:15.516Z,101.88
2023-02-24T03:38:44.393Z,107.60
2023-02-24T03:41:13.852Z,111.05
2023-02-24T03:43:46.571Z,117.55
2023-02-24T03:46:17.472Z,112.78
2023-02-24T03:48:52.953Z,109.05
2023-02-24T03:51:23.666Z,115.75
2023-02-24T03:54:06.714Z,111.95
2023-02-24T03:56:43.762Z,114.10
2023-02-24T03:59:23.994Z,106.72
2023-02-24T04:02:10.424Z,116.32
2023-02-24T04:04:55.558Z,112.85
2023-02-24T04:07:55.981Z,111.63
2023-02-24T04:10:52.824Z,115.80
2023-02-24T04:13:39.019Z,111.35
2023-02-24T04:16:36.657Z,106.95
2023-02-24T04:19:14.408Z,113.57
2023-02-24T04:21:45.849Z,114.05
2023-02-24T04:24:23.934Z,110.75
2023-02-24T04:26:53.882Z,109.78
2023-02-24T04:29:24.278Z,106.78
2023-02-24T04:31:59.338Z,106.95
2023-02-24T04:34:32.528Z,109.10
2023-02-24T04:37:02.553Z,114.68
2023-02-24T04:39:31.644Z,116.43
2023-02-24T04:42:01.895Z,113.28
2023-02-24T04:44:29.794Z,109.78
2023-02-24T04:46:58.674Z,117.00
2023-02-24T04:49:27.507Z,114.25
2023-02-24T04:51:57.540Z,108.15
2023-02-24T04:54:25.394Z,113.18
2023-02-24T04:56:54.496Z,105.50
2023-02-24T04:59:22.765Z,115.00
2023-02-24T05:01:55.141Z,113.63
2023-02-24T05:04:24.207Z,114.63
2023-02-24T05:06:52.161Z,108.90
2023-02-24T05:09:20.054Z,109.38
2023-02-24T05:11:49.851Z,112.90
2023-02-24T05:14:25.212Z,121.35
2023-02-24T05:16:53.295Z,105.75
2023-02-24T05:19:39.630Z,114.72
2023-02-24T05:22:07.681Z,108.35
2023-02-24T05:24:35.690Z,109.90
2023-02-24T05:27:04.087Z,119.38
2023-02-24T05:29:34.795Z,114.65
2023-02-24T05:32:04.932Z,108.10
2023-02-24T05:34:34.180Z,116.97
2023-02-24T05:37:10.939Z,114.75
2023-02-24T05:39:38.972Z,111.93
2023-02-24T05:42:07.361Z,114.03
2023-02-24T05:44:35.921Z,117.45
2023-02-24T05:47:05.854Z,109.00
2023-02-24T05:49:35.503Z,114.05
2023-02-24T05:52:10.328Z,115.13
2023-02-24T05:54:42.189Z,113.80
2023-02-24T05:57:12.210Z,122.05
2023-02-24T05:59:42.005Z,121.25
2023-02-24T06:02:13.874Z,124.07
2023-02-24T06:04:54.280Z,124.30
2023-02-24T06:07:25.213Z,118.55
2023-02-24T06:09:58.785Z,123.03
2023-02-24T06:12:34.059Z,135.63
2023-02-24T06:15:08.211Z,125.38
2023-02-24T06:17:36.247Z,123.30
2023-02-24T06:20:14.110Z,116.78
2023-02-24T06:22:42.704Z,120.72
2023-02-24T06:25:14.319Z,120.90
2023-02-24T06:27:43.306Z,121.85
2023-02-24T06:30:11.988Z,117.57
2023-02-24T06:32:40.356Z,121.70
2023-02-24T06:35:09.632Z,117.97
2023-02-24T06:37:37.595Z,117.20
2023-02-24T06:40:16.052Z,118.60
2023-02-24T06:42:49.917Z,119.85
2023-02-24T06:45:17.965Z,116.43
2023-02-24T06:47:49.336Z,123.43
2023-02-24T06:50:21.985Z,127.65
2023-02-24T06:52:50.956Z,119.82
2023-02-24T06:55:27.970Z,121.68
2023-02-24T06:57:59.042Z,127.20
2023-02-24T07:00:38.898Z,123.85
2023-02-24T07:03:20.959Z,132.07
2023-02-24T07:06:11.378Z,116.18
2023-02-24T07:08:39.320Z,114.30
2023-02-24T07:11:08.120Z,120.35
2023-02-24T07:13:36.993Z,123.53
2023-02-24T07:16:07.480Z,124.82
2023-02-24T07:18:42.016Z,120.15
2023-02-24T07:21:12.910Z,125.43
2023-02-24T07:23:42.289Z,119.75
2023-02-24T07:26:13.055Z,120.07
2023-02-24T07:28:43.916Z,128.73
2023-02-24T07:31:15.309Z,131.02
2023-02-24T07:33:45.407Z,123.50
2023-02-24T07:36:15.385Z,119.88
2023-02-24T07:38:44.062Z,118.50
2023-02-24T07:41:15.549Z,122.18
2023-02-24T07:43:44.333Z,121.60
2023-02-24T07:46:14.779Z,123.07
2023-02-24T07:48:43.132Z,118.03
2023-02-24T07:51:17.205Z,114.70
2023-02-24T07:53:52.292Z,122.03
2023-02-24T07:56:27.499Z,121.38
2023-02-24T07:58:59.771Z,117.63
2023-02-24T08:01:30.712Z,124.80
2023-02-24T08:04:10.728Z,114.18
2023-02-24T08:06:46.838Z,127.15
2023-02-24T08:09:19.291Z,122.43
2023-02-24T08:11:52.474Z,122.90
2023-02-24T08:14:23.741Z,133.15
2023-02-24T08:16:59.742Z,136.75
2023-02-24T08:19:39.749Z,151.43
2023-02-24T08:22:24.490Z,146.80
2023-02-24T08:25:00.964Z,138.32
2023-02-24T08:27:30.606Z,125.47
2023-02-24T08:30:00.291Z,129.40
2023-02-24T08:32:44.055Z,136.82
2023-02-24T08:35:18.037Z,125.25
2023-02-24T08:37:47.327Z,135.68
2023-02-24T08:40:34.773Z,135.38
2023-02-24T08:43:19.662Z,124.95
2023-02-24T08:45:51.244Z,133.35
2023-02-24T08:48:38.826Z,131.50
2023-02-24T08:51:30.197Z,118.35
2023-02-24T08:54:01.421Z,120.20
2023-02-24T08:56:35.233Z,124.00
2023-02-24T08:59:06.156Z,121.70
2023-02-24T09:01:37.621Z,131.35
2023-02-24T09:04:11.288Z,129.10
2023-02-24T09:06:44.475Z,124.28
2023-02-24T09:09:23.844Z,130.27
2023-02-24T09:11:57.557Z,133.40
2023-02-24T09:14:36.766Z,124.68
2023-02-24T09:17:11.573Z,129.35
2023-02-24T09:19:52.124Z,140.32
2023-02-24T09:22:32.116Z,141.15
2023-02-24T09:25:22.052Z,154.02
2023-02-24T09:27:57.296Z,147.20
2023-02-24T09:30:37.706Z,147.80
2023-02-24T09:33:08.931Z,151.90
2023-02-24T09:35:42.172Z,153.35
2023-02-24T09:40:40.160Z,144.15
2023-02-24T09:43:28.360Z,148.60
2023-02-24T09:46:15.133Z,148.50
2023-02-24T09:49:08.191Z,151.63
2023-02-24T09:51:42.781Z,142.55
2023-02-24T09:54:20.523Z,142.77
2023-02-24T09:57:08.740Z,144.32
2023-02-24T09:59:51.348Z,145.23
2023-02-24T10:03:00.511Z,137.50
2023-02-24T10:05:49.143Z,121.35
2023-02-24T10:08:26.747Z,124.55
2023-02-24T10:11:09.597Z,123.43
2023-02-24T10:13:52.211Z,122.35
2023-02-24T10:16:26.509Z,124.15
2023-02-24T10:19:16.872Z,121.03
2023-02-24T10:22:03.437Z,114.72
2023-02-24T10:24:48.749Z,113.22
2023-02-24T10:27:27.274Z,111.65
2023-02-24T10:30:27.833Z,112.10
2023-02-24T10:32:59.167Z,109.53
2023-02-24T10:35:33.978Z,111.13
2023-02-24T10:38:06.714Z,113.40
2023-02-24T10:40:47.099Z,109.32
2023-02-24T10:43:20.635Z,108.13
2023-02-24T10:45:48.842Z,109.47
2023-02-24T10:48:40.760Z,106.50
2023-02-24T10:51:32.099Z,111.93
2023-02-24T10:54:39.763Z,112.00
2023-02-24T10:57:38.326Z,117.13
2023-02-24T11:00:18.814Z,112.15
2023-02-24T11:03:10.137Z,103.80
2023-02-24T11:06:04.400Z,109.47
2023-02-24T11:08:40.034Z,111.35
2023-02-24T11:11:25.805Z,110.63
2023-02-24T11:14:14.286Z,105.10
2023-02-24T11:17:13.311Z,113.40
2023-02-24T11:20:01.587Z,102.13
2023-02-24T11:22:37.973Z,106.03
2023-02-24T11:25:14.360Z,105.10
2023-02-24T11:27:44.069Z,104.97
2023-02-24T11:30:50.498Z,104.53
2023-02-24T11:33:47.578Z,96.50
2023-02-24T11:36:45.603Z,104.07
2023-02-24T11:39:43.062Z,98.40
2023-02-24T11:42:22.083Z,100.28
2023-02-24T11:45:09.530Z,101.03
2023-02-24T11:47:50.481Z,102.47
2023-02-24T11:50:39.896Z,93.38
2023-02-24T11:53:17.491Z,93.15
2023-02-24T11:55:51.799Z,85.88
2023-02-24T11:58:50.922Z,88.15
2023-02-24T12:01:30.909Z,93.47
2023-02-24T12:04:30.663Z,92.45
2023-02-24T12:07:09.999Z,85.82
2023-02-24T12:10:15.967Z,88.55
2023-02-24T12:12:53.551Z,81.85
2023-02-24T12:15:34.330Z,89.25
2023-02-24T12:18:36.448Z,96.82
2023-02-24T12:21:13.609Z,91.13
2023-02-24T12:23:44.900Z,84.20
2023-02-24T12:26:30.727Z,83.13
2023-02-24T12:29:16.738Z,85.90
2023-02-24T12:32:11.167Z,84.20
2023-02-24T12:35:08.789Z,83.22
2023-02-24T12:38:06.702Z,80.90
2023-02-24T12:41:06.434Z,78.10
2023-02-24T12:43:57.317Z,71.63
2023-02-24T12:46:31.129Z,68.60
2023-02-24T12:49:04.776Z,73.70
2023-02-24T12:51:42.187Z,73.13
2023-02-24T12:54:12.917Z,76.10
2023-02-24T12:57:00.183Z,75.10
2023-02-24T12:59:32.442Z,75.82
2023-02-24T13:02:42.709Z,73.30
2023-02-24T13:05:24.716Z,74.35
2023-02-24T13:08:09.697Z,76.50
2023-02-24T13:10:55.395Z,78.68
2023-02-24T13:14:08.169Z,74.50
2023-02-24T13:16:36.913Z,67.00
2023-02-24T13:19:19.702Z,71.75
2023-02-24T13:22:04.058Z,68.63
2023-02-24T13:24:32.366Z,62.13
2023-02-24T13:27:25.928Z,62.53
2023-02-24T13:29:57.684Z,68.30
2023-02-24T13:32:46.183Z,66.27
2023-02-24T13:35:14.215Z,66.03
2023-02-24T13:37:45.566Z,68.22
2023-02-24T13:40:19.259Z,72.35
2023-02-24T13:43:01.839Z,70.15
2023-02-24T13:45:36.547Z,65.82
2023-02-24T13:48:37.542Z,67.15
2023-02-24T13:51:05.387Z,72.25
2023-02-24T13:54:24.570Z,68.82
2023-02-24T13:57:24.912Z,66.25
2023-02-24T14:00:10.789Z,62.95
2023-02-24T14:02:44.465Z,65.90
2023-02-24T14:05:25.383Z,62.30
2023-02-24T14:07:55.180Z,60.67
2023-02-24T14:10:26.364Z,62.45
2023-02-24T14:13:13.394Z,61.88
2023-02-24T14:15:45.145Z,64.18
2023-02-24T14:18:39.321Z,69.10
2023-02-24T14:21:07.295Z,59.97
2023-02-24T14:23:35.551Z,59.65
2023-02-24T14:26:08.226Z,60.53
2023-02-24T14:28:38.387Z,65.30
2023-02-24T14:31:13.455Z,61.47
2023-02-24T14:33:44.640Z,67.22
2023-02-24T14:36:24.417Z,68.13
2023-02-24T14:39:17.354Z,60.85
2023-02-24T14:41:47.777Z,61.13
2023-02-24T14:44:19.109Z,60.92
2023-02-24T14:46:49.598Z,63.80
2023-02-24T14:49:21.638Z,68.53
2023-02-24T14:51:55.189Z,66.10
2023-02-24T14:54:54.512Z,66.28
2023-02-24T14:57:28.551Z,68.35
2023-02-24T15:00:24.449Z,69.93
2023-02-24T15:02:55.648Z,70.57
2023-02-24T15:05:23.888Z,67.18
2023-02-24T15:07:52.159Z,69.53
2023-02-24T15:10:27.825Z,66.40
2023-02-24T15:13:37.224Z,69.50
2023-02-24T15:16:28.005Z,66.97
2023-02-24T15:19:01.155Z,67.75
2023-02-24T15:21:34.676Z,66.07
2023-02-24T15:27:00.015Z,74.30
2023-02-24T15:29:30.979Z,73.05
2023-02-24T15:32:01.071Z,70.18
2023-02-24T15:34:37.022Z,69.88
2023-02-24T15:37:22.990Z,73.90
2023-02-24T15:39:57.629Z,77.50
2023-02-24T15:42:32.009Z,70.68
2023-02-24T15:45:01.382Z,69.40
2023-02-24T15:47:43.609Z,74.13
2023-02-24T15:50:13.156Z,74.78
2023-02-24T15:52:42.019Z,71.57
2023-02-24T15:55:17.056Z,79.50
2023-02-24T15:57:46.446Z,70.28
2023-02-24T16:00:18.612Z,75.70
2023-02-24T16:05:15.868Z,73.93
2023-02-24T16:08:14.134Z,70.10
2023-02-24T16:10:42.125Z,67.57
2023-02-24T16:13:19.169Z,67.90
2023-02-24T16:15:47.258Z,75.97
2023-02-24T16:18:22.185Z,69.22
2023-02-24T16:20:55.571Z,74.47
2023-02-24T16:23:25.952Z,70.88
2023-02-24T16:26:00.319Z,66.53
2023-02-24T16:28:28.406Z,68.22
2023-02-24T16:30:56.379Z,73.72
2023-02-24T16:33:24.555Z,68.32
2023-02-24T16:35:55.762Z,66.25
2023-02-24T16:38:27.116Z,66.45
2023-02-24T16:40:56.083Z,68.32
2023-02-24T16:43:24.977Z,66.57
2023-02-24T16:45:55.604Z,70.03
2023-02-24T16:48:27.004Z,71.90
2023-02-24T16:50:55.435Z,73.43
2023-02-24T16:53:24.555Z,69.32
2023-02-24T16:55:53.105Z,70.93
2023-02-24T16:58:21.105Z,67.07
2023-02-24T17:00:50.887Z,70.53
2023-02-24T17:03:45.399Z,69.30
2023-02-24T17:06:13.490Z,74.15
2023-02-24T17:08:44.356Z,71.43
2023-02-24T17:11:18.887Z,74.82
2023-02-24T17:13:46.710Z,69.72
2023-02-24T17:16:14.621Z,74.00
2023-02-24T17:18:42.637Z,70.85
2023-02-24T17:21:14.202Z,68.38
2023-02-24T17:23:45.076Z,79.03
2023-02-24T17:26:16.233Z,84.82
2023-02-24T17:28:44.311Z,76.15
2023-02-24T17:31:12.664Z,81.85
2023-02-24T17:33:41.761Z,70.78
2023-02-24T17:36:09.812Z,69.70
2023-02-24T17:38:38.156Z,69.18
2023-02-24T17:41:06.274Z,72.18
2023-02-24T17:43:34.340Z,68.40
2023-02-24T17:46:05.776Z,78.13
2023-02-24T17:48:35.335Z,74.03
2023-02-24T17:51:03.295Z,71.85
2023-02-24T17:53:32.295Z,81.68
2023-02-24T17:56:07.194Z,84.93
2023-02-24T17:58:35.695Z,72.55
2023-02-24T18:01:05.845Z,71.95
2023-02-24T18:03:35.604Z,76.57
2023-02-24T18:06:06.655Z,82.15
2023-02-24T18:08:35.427Z,70.57
2023-02-24T18:11:05.215Z,71.70
2023-02-24T18:13:34.013Z,75.65
2023-02-24T18:16:02.189Z,76.38
2023-02-24T18:18:30.542Z,72.07
2023-02-24T18:21:02.774Z,75.53
2023-02-24T18:23:30.909Z,73.43
2023-02-24T18:26:04.194Z,76.13
2023-02-24T18:28:33.571Z,91.93
2023-02-24T18:31:03.636Z,80.30
2023-02-24T18:33:31.796Z,77.80
2023-02-24T18:36:00.579Z,73.68
2023-02-24T18:38:28.889Z,85.13
2023-02-24T18:40:59.180Z,77.68
2023-02-24T18:43:27.630Z,80.43
2023-02-24T18:46:00.950Z,79.10
2023-02-24T18:50:59.484Z,77.93
2023-02-24T18:53:32.275Z,78.55
2023-02-24T18:56:02.242Z,75.60
2023-02-24T18:58:30.959Z,77.70
2023-02-24T19:01:00.161Z,76.10
2023-02-24T19:03:28.253Z,75.72
2023-02-24T19:05:56.194Z,81.68
2023-02-24T19:08:24.153Z,79.80
2023-02-24T19:10:52.149Z,80.88
2023-02-24T19:13:20.124Z,82.78
2023-02-24T19:15:48.593Z,81.45
2023-02-24T19:18:17.316Z,87.93
2023-02-24T19:20:45.241Z,88.68
2023-02-24T19:23:13.247Z,82.32
2023-02-24T19:25:41.215Z,83.20
2023-02-24T19:28:09.169Z,80.53
2023-02-24T19:30:39.865Z,83.40
2023-02-24T19:33:08.079Z,86.50
2023-02-24T19:35:41.116Z,83.07
2023-02-24T19:38:13.500Z,86.45
2023-02-24T19:40:41.921Z,84.90
2023-02-24T19:43:10.154Z,82.80
2023-02-24T19:45:44.205Z,82.72
2023-02-24T19:48:12.216Z,81.95
2023-02-24T19:50:41.446Z,89.20
2023-02-24T19:53:09.677Z,89.88
2023-02-24T19:55:37.820Z,85.00
2023-02-24T19:58:05.790Z,78.78
2023-02-24T20:00:33.686Z,91.90
2023-02-24T20:03:01.747Z,86.53
2023-02-24T20:05:29.620Z,92.40
2023-02-24T20:07:58.069Z,86.82
2023-02-24T20:10:25.941Z,86.90
2023-02-24T20:12:54.981Z,83.20
2023-02-24T20:15:22.899Z,85.20
2023-02-24T20:17:50.880Z,89.35
2023-02-24T20:20:18.846Z,90.00
2023-02-24T20:22:46.821Z,87.15
2023-02-24T20:25:15.649Z,87.18
2023-02-24T20:27:43.681Z,85.30
2023-02-24T20:30:12.373Z,83.20
2023-02-24T20:32:40.406Z,83.43
2023-02-24T20:35:10.841Z,92.95
2023-02-24T20:37:38.908Z,86.90
2023-02-24T20:40:07.463Z,86.47
2023-02-24T20:42:35.410Z,87.32
2023-02-24T20:45:03.508Z,84.35
2023-02-24T20:47:31.469Z,86.70
2023-02-24T20:50:00.109Z,89.28
2023-02-24T20:52:28.230Z,101.63
2023-02-24T20:54:56.131Z,90.07
2023-02-24T20:57:24.203Z,88.40
2023-02-24T21:00:03.099Z,92.50
2023-02-24T21:02:31.759Z,92.97
2023-02-24T21:04:59.764Z,92.28
2023-02-24T21:07:27.690Z,93.40
2023-02-24T21:09:55.651Z,96.32
2023-02-24T21:12:23.938Z,89.78
2023-02-24T21:14:51.780Z,89.22
2023-02-24T21:17:19.813Z,94.65
2023-02-24T21:19:47.792Z,85.65
2023-02-24T21:22:15.735Z,87.18
2023-02-24T21:24:44.167Z,90.22
2023-02-24T21:27:12.050Z,92.03
2023-02-24T21:29:40.138Z,93.03
2023-02-24T21:32:08.206Z,94.93
2023-02-24T21:34:36.138Z,94.50
2023-02-24T21:37:06.187Z,88.45
2023-02-24T21:39:34.196Z,95.22
2023-02-24T21:42:02.061Z,90.82
2023-02-24T21:44:29.805Z,95.82
2023-02-24T21:46:57.691Z,90.35
2023-02-24T21:49:26.712Z,92.00
2023-02-24T21:51:55.483Z,92.07
2023-02-24T21:54:23.697Z,92.20
2023-02-24T21:56:51.564Z,90.88
2023-02-24T21:59:19.455Z,89.00
2023-02-24T22:01:47.466Z,96.88
2023-02-24T22:04:19.178Z,98.00
2023-02-24T22:06:47.434Z,95.50
2023-02-24T22:09:19.952Z,95.60
2023-02-24T22:11:49.660Z,93.43
2023-02-24T22:14:17.907Z,95.55
2023-02-24T22:16:45.905Z,94.70
2023-02-24T22:19:14.255Z,94.63
2023-02-24T22:21:42.706Z,98.40
2023-02-24T22:24:16.316Z,91.32
2023-02-24T22:26:45.214Z,99.95
2023-02-24T22:29:13.136Z,97.18
2023-02-24T22:31:43.915Z,104.70
2023-02-24T22:34:13.487Z,98.43
2023-02-24T22:36:41.337Z,99.88
2023-02-24T22:39:09.540Z,97.95
2023-02-24T22:41:38.368Z,96.68
2023-02-24T22:44:06.446Z,93.90
2023-02-24T22:46:37.378Z,91.40
2023-02-24T22:49:05.667Z,91.45
2023-02-24T22:51:33.550Z,90.70
2023-02-24T22:54:01.430Z,91.75
2023-02-24T22:56:30.319Z,94.88
2023-02-24T22:58:59.132Z,105.20
2023-02-24T23:01:30.231Z,92.85
2023-02-24T23:04:09.101Z,90.82
2023-02-24T23:06:37.248Z,97.97
2023-02-24T23:09:06.575Z,89.88
2023-02-24T23:11:38.920Z,94.28
2023-02-24T23:14:10.281Z,96.07
2023-02-24T23:16:38.999Z,91.60
2023-02-24T23:19:12.335Z,95.30
2023-02-24T23:24:11.229Z,92.28
2023-02-24T23:26:41.029Z,99.70
2023-02-24T23:29:11.095Z,100.65
2023-02-24T23:31:39.396Z,107.18
2023-02-24T23:34:07.798Z,94.78
2023-02-24T23:36:37.938Z,89.68
2023-02-24T23:39:07.108Z,103.25
2023-02-24T23:41:36.184Z,100.82
2023-02-24T23:44:05.579Z,97.57
2023-02-24T23:46:35.082Z,98.28
2023-02-24T23:49:03.952Z,103.18
2023-02-24T23:51:47.041Z,102.93
2023-02-24T23:54:19.222Z,107.30
2023-02-24T23:56:47.274Z,106.60
2023-02-24T23:59:15.603Z,97.90
